Time;durP1;ratioP1;P1;durP2;ratioP2;P2;SDS_P1;SDS_P2;PMS_P1;PMS_P2;Temp;Humidity;BMP_temperature;BMP_pressure;BME280_temperature;BME280_humidity;BME280_pressure;Samples;Min_cycle;Max_cycle;Signal;HPM_P1;HPM_P2
2023/11/17 00:02:19;;;;;;;;;;;12.50;71.30;;;8.16;100.00;94998.47;4990637;28;19971;-58
2023/11/17 00:04:45;;;;;;;;;;;12.50;71.40;;;8.09;100.00;94998.72;4989577;28;19914;-58
2023/11/17 00:07:11;;;;;;;;;;;12.40;71.40;;;8.12;100.00;95024.72;4990620;28;19918;-55
2023/11/17 00:09:36;;;;;;;;;;;12.40;71.50;;;8.08;100.00;95040.38;4993633;28;19909;-55
2023/11/17 00:12:05;;;;;;;;;;;12.40;71.50;;;7.91;100.00;95049.59;4993477;28;19909;-56
2023/11/17 00:14:32;;;;;;;;;;;12.40;71.50;;;7.79;100.00;95061.19;4994271;28;20283;-54
2023/11/17 00:16:58;;;;;;;;;;;12.30;71.50;;;7.62;100.00;95056.09;4993148;28;20312;-54
2023/11/17 00:19:24;;;;;;;;;;;12.20;71.40;;;7.54;100.00;95061.88;4993956;28;19910;-58
2023/11/17 00:21:50;;;;;;;;;;;12.10;71.40;;;7.45;100.00;95078.53;4993021;28;19916;-58
2023/11/17 00:24:17;;;;;;;;;;;12.00;71.40;;;7.35;100.00;95076.63;4994249;28;19909;-58
2023/11/17 00:26:44;;;;;;;;;;;11.90;71.50;;;7.33;100.00;95116.63;4994111;28;19948;-55
2023/11/17 00:29:10;;;;;;;;;;;11.80;71.40;;;7.26;100.00;95092.19;4992879;28;19917;-55
2023/11/17 00:31:36;;;;;;;;;;;11.80;71.50;;;7.26;100.00;95100.16;4987972;28;19909;-54
2023/11/17 00:34:03;;;;;;;;;;;11.70;71.60;;;7.24;100.00;95122.63;4993227;28;19913;-56
2023/11/17 00:36:29;;;;;;;;;;;11.70;71.60;;;7.21;100.00;95131.09;4993491;28;20402;-58
2023/11/17 00:38:55;;;;;;;;;;;11.70;71.60;;;7.15;100.00;95128.44;4993677;28;19917;-56
2023/11/17 00:41:21;;;;;;;;;;;11.70;72.40;;;7.19;100.00;95136.66;4998629;28;20001;-56
2023/11/17 00:43:47;;;;;;;;;;;11.70;71.60;;;7.13;100.00;95157.00;5013416;28;19909;-57
2023/11/17 00:46:13;;;;;;;;;;;11.70;71.60;;;7.13;100.00;95146.41;5009316;28;19916;-58
2023/11/17 00:48:39;;;;;;;;;;;11.70;71.50;;;7.11;100.00;95137.94;5012880;28;20256;-56
2023/11/17 00:51:05;;;;;;;;;;;11.60;71.50;;;7.12;100.00;95175.81;5013242;28;19916;-56
2023/11/17 00:53:31;;;;;;;;;;;11.70;71.40;;;7.08;100.00;95170.22;5009175;28;19924;-57
2023/11/17 00:55:58;;;;;;;;;;;11.70;71.40;;;7.06;100.00;95188.22;4995468;28;19940;-58
2023/11/17 00:58:25;;;;;;;;;;;11.60;71.20;;;7.06;100.00;95182.13;5008531;28;20391;-56
2023/11/17 01:00:52;;;;;;;;;;;11.60;71.10;;;7.10;100.00;95207.84;4995586;28;20383;-57
2023/11/17 01:03:20;;;;;;;;;;;11.60;71.00;;;7.00;100.00;95201.66;5004870;28;19960;-55
2023/11/17 01:05:46;;;;;;;;;;;11.60;70.90;;;6.96;100.00;95219.91;5010818;28;19967;-57
2023/11/17 01:08:12;;;;;;;;;;;11.60;70.80;;;7.02;100.00;95228.66;5011021;28;19917;-56
2023/11/17 01:10:39;;;;;;;;;;;11.60;70.80;;;6.99;100.00;95240.59;5005282;28;20457;-57
2023/11/17 01:13:06;;;;;;;;;;;11.60;70.70;;;6.93;100.00;95234.44;5008687;28;19916;-56
2023/11/17 01:15:35;;;;;;;;;;;11.60;70.60;;;6.86;100.00;95238.31;5012680;28;19909;-55
2023/11/17 01:18:08;;;;;;;;;;;11.60;70.50;;;6.85;100.00;95261.34;5007723;28;19913;-55
2023/11/17 01:20:40;;;;;;;;;;;11.60;70.30;;;6.81;100.00;95281.44;5010650;28;19944;-54
2023/11/17 01:23:08;;;;;;;;;;;11.50;70.10;;;6.79;100.00;95285.38;5008837;28;20011;-56
2023/11/17 01:25:34;;;;;;;;;;;11.50;70.10;;;6.79;100.00;95291.47;4994746;28;20015;-52
2023/11/17 01:28:02;;;;;;;;;;;11.50;70.10;;;6.72;100.00;95302.25;5009076;28;19948;-54
2023/11/17 01:30:30;;;;;;;;;;;11.50;70.00;;;6.65;100.00;95314.06;5010905;28;19917;-58
2023/11/17 01:32:57;;;;;;;;;;;11.40;69.80;;;6.63;100.00;95322.25;5012717;28;20011;-54
2023/11/17 01:35:23;;;;;;;;;;;11.40;69.80;;;6.61;100.00;95324.34;5007231;28;20379;-54
2023/11/17 01:37:50;;;;;;;;;;;11.40;69.80;;;6.60;100.00;95325.38;5011966;28;19913;-56
2023/11/17 01:40:17;;;;;;;;;;;11.40;69.80;;;6.56;100.00;95329.56;5007096;28;19913;-56
2023/11/17 01:42:44;;;;;;;;;;;11.30;69.70;;;6.59;100.00;95347.59;5008070;28;19909;-55
2023/11/17 01:45:10;;;;;;;;;;;11.30;70.50;;;6.59;100.00;95352.09;5011994;28;19909;-52
2023/11/17 01:47:39;;;;;;;;;;;11.30;69.80;;;6.59;100.00;95368.00;5010401;28;19913;-55
2023/11/17 01:50:09;;;;;;;;;;;11.30;69.70;;;6.56;100.00;95374.56;5012242;28;20299;-52
2023/11/17 01:52:37;;;;;;;;;;;11.30;69.70;;;6.52;100.00;95377.91;5007154;28;20372;-56
2023/11/17 01:55:09;;;;;;;;;;;11.30;69.60;;;6.54;99.57;95373.19;4994839;28;19959;-54
2023/11/17 01:57:38;;;;;;;;;;;11.30;69.50;;;6.54;99.73;95391.72;5011409;28;19919;-56
2023/11/17 02:00:14;;;;;;;;;;;11.30;69.50;;;6.58;100.00;95388.38;4986405;28;20348;-54
2023/11/17 02:02:47;;;;;;;;;;;11.30;69.50;;;6.53;100.00;95395.41;5011714;28;19909;-52
2023/11/17 02:05:20;;;;;;;;;;;11.30;69.50;;;6.53;100.00;95411.31;4990820;28;20008;-53
2023/11/17 02:11:05;;;;;;;;;;;11.20;69.40;;;6.43;100.00;95428.63;5013557;28;20016;-53
2023/11/17 02:13:56;;;;;;;;;;;11.20;69.30;;;6.39;100.00;95422.22;5010841;28;19974;-51
2023/11/17 02:16:25;;;;;;;;;;;11.20;69.30;;;6.38;100.00;95428.53;5006895;28;19920;-56
2023/11/17 02:18:58;;;;;;;;;;;11.20;69.40;;;6.33;100.00;95454.09;5016215;28;19935;-53
2023/11/17 02:21:31;;;;;;;;;;;11.10;69.30;;;6.31;100.00;95451.72;4995301;28;19955;-53
2023/11/17 02:24:06;;;;;;;;;;;11.10;69.20;;;6.32;100.00;95449.88;5008309;28;19937;-56
2023/11/17 02:27:37;;;;;;;;;;;11.10;70.00;;;6.26;100.00;95448.97;5010261;28;19909;-52
2023/11/17 02:30:05;;;;;;;;;;;11.10;69.20;;;6.23;100.00;95458.19;4969097;28;19914;-53
2023/11/17 02:32:38;;;;;;;;;;;11.00;69.20;;;6.22;100.00;95456.59;4970251;28;19917;-57
2023/11/17 02:35:08;;;;;;;;;;;11.00;69.10;;;6.29;100.00;95455.63;4990523;28;19913;-51
2023/11/17 02:37:35;;;;;;;;;;;11.00;69.20;;;6.23;100.00;95460.84;5012277;28;19913;-55
2023/11/17 02:40:18;;;;;;;;;;;11.00;69.10;;;6.28;100.00;95451.41;4991494;28;19963;-55
2023/11/17 02:42:47;;;;;;;;;;;11.00;69.20;;;6.24;100.00;95470.41;4987063;28;19909;-58
2023/11/17 02:45:20;;;;;;;;;;;11.00;69.20;;;6.20;100.00;95469.25;4992430;28;19909;-53
2023/11/17 02:47:49;;;;;;;;;;;11.00;69.20;;;6.20;100.00;95471.09;4991258;28;20001;-54
2023/11/17 02:50:22;;;;;;;;;;;11.00;69.20;;;6.18;99.10;95470.56;4992212;28;19909;-54
2023/11/17 02:53:06;;;;;;;;;;;11.00;69.20;;;6.24;99.66;95472.25;4991733;28;19968;-51
2023/11/17 02:55:37;;;;;;;;;;;11.00;69.90;;;6.23;99.41;95466.13;4977507;28;19999;-55
2023/11/17 02:58:04;;;;;;;;;;;10.90;69.00;;;6.17;97.75;95471.56;4974376;28;19996;-55
2023/11/17 03:00:31;;;;;;;;;;;10.90;68.90;;;6.22;98.99;95477.75;4975009;28;19994;-56
2023/11/17 03:02:57;;;;;;;;;;;10.90;68.80;;;6.19;97.21;95475.59;4992340;28;19909;-52
2023/11/17 03:05:30;;;;;;;;;;;10.90;69.50;;;6.14;96.30;95472.88;4973984;28;20273;-53
2023/11/17 03:07:56;;;;;;;;;;;10.90;68.40;;;6.11;96.43;95483.09;4992000;28;19916;-58
2023/11/17 03:10:24;;;;;;;;;;;10.90;68.10;;;6.11;96.96;95483.94;4992326;28;19940;-57
2023/11/17 03:12:55;;;;;;;;;;;10.90;68.10;;;6.11;96.75;95499.81;4992036;28;19909;-55
2023/11/17 03:15:22;;;;;;;;;;;10.80;68.00;;;6.05;96.65;95487.53;4991849;28;20008;-57
2023/11/17 03:17:51;;;;;;;;;;;10.80;68.00;;;6.07;96.85;95497.84;4990857;28;19914;-54
2023/11/17 03:20:18;;;;;;;;;;;10.80;67.90;;;6.10;97.88;95500.81;4991872;28;19909;-57
2023/11/17 03:22:45;;;;;;;;;;;10.80;68.00;;;6.03;98.63;95508.13;4991075;28;20051;-56
2023/11/17 03:25:15;;;;;;;;;;;10.80;68.00;;;6.02;99.19;95509.97;4991949;28;20509;-57
2023/11/17 03:27:47;;;;;;;;;;;10.80;68.00;;;6.03;99.15;95511.56;4991997;28;19916;-56
2023/11/17 03:30:17;;;;;;;;;;;10.80;68.00;;;6.05;100.00;95515.78;4991363;28;19917;-58
2023/11/17 03:32:45;;;;;;;;;;;10.80;68.10;;;5.95;99.15;95508.47;4991813;28;19962;-58
2023/11/17 03:35:11;;;;;;;;;;;10.80;68.00;;;5.98;99.14;95518.59;4991021;28;19911;-55
2023/11/17 03:37:38;;;;;;;;;;;10.80;68.10;;;6.03;99.64;95523.97;4991698;28;19928;-54
2023/11/17 03:40:11;;;;;;;;;;;10.80;68.10;;;6.02;100.00;95525.03;4990934;28;22050;-57
2023/11/17 03:42:40;;;;;;;;;;;10.80;68.10;;;6.02;99.82;95525.03;4996754;28;19909;-56
2023/11/17 03:45:07;;;;;;;;;;;10.80;68.10;;;5.98;99.35;95534.44;4991777;28;19936;-58
2023/11/17 03:47:37;;;;;;;;;;;10.80;68.10;;;5.92;98.24;95530.91;4993082;28;19944;-56
2023/11/17 03:50:05;;;;;;;;;;;10.80;68.00;;;5.91;98.55;95529.28;4995494;28;19932;-58
2023/11/17 03:52:31;;;;;;;;;;;10.70;67.80;;;5.88;98.43;95535.03;4994707;28;20596;-56
2023/11/17 03:55:00;;;;;;;;;;;10.70;67.70;;;5.86;98.12;95539.78;4995619;28;19916;-56
2023/11/17 03:57:27;;;;;;;;;;;10.70;67.70;;;5.91;98.94;95539.06;4995576;28;20458;-56
2023/11/17 03:59:54;;;;;;;;;;;10.70;67.80;;;5.91;98.55;95539.06;4994451;28;19909;-51
2023/11/17 04:02:23;;;;;;;;;;;10.70;67.90;;;5.83;96.72;95542.06;4995836;28;19909;-57
2023/11/17 04:04:53;;;;;;;;;;;10.60;67.70;;;5.86;97.57;95544.22;4994515;28;19914;-58
2023/11/17 04:07:19;;;;;;;;;;;10.60;67.60;;;5.85;97.97;95547.94;4993011;28;19952;-53
2023/11/17 04:09:48;;;;;;;;;;;10.60;67.70;;;5.78;97.63;95545.41;4994718;28;19986;-54
2023/11/17 04:12:15;;;;;;;;;;;10.60;67.60;;;5.78;97.88;95553.34;5000120;28;20368;-54
2023/11/17 04:14:41;;;;;;;;;;;10.60;67.60;;;5.73;97.59;95558.53;4995637;28;20363;-53
2023/11/17 04:17:08;;;;;;;;;;;10.60;67.50;;;5.75;98.29;95562.53;4993917;28;20376;-53
2023/11/17 04:19:37;;;;;;;;;;;10.60;67.50;;;5.73;97.80;95553.25;4995225;28;20417;-55
2023/11/17 04:22:04;;;;;;;;;;;10.60;67.60;;;5.71;98.90;95561.41;4995372;28;20379;-55
2023/11/17 04:24:30;;;;;;;;;;;10.50;67.50;;;5.74;98.73;95560.16;4995104;28;19909;-56
2023/11/17 04:26:56;;;;;;;;;;;10.50;67.50;;;5.75;99.65;95569.69;4994953;28;19917;-54
2023/11/17 04:29:25;;;;;;;;;;;10.50;67.50;;;5.72;99.70;95575.44;4993845;28;19909;-52
2023/11/17 04:31:54;;;;;;;;;;;10.50;67.50;;;5.68;99.65;95576.94;4994763;28;19916;-55
2023/11/17 04:34:23;;;;;;;;;;;10.50;67.50;;;5.63;99.75;95564.41;4994343;28;19984;-55
2023/11/17 04:36:49;;;;;;;;;;;10.50;67.50;;;5.64;100.00;95573.16;4994597;28;19956;-57
2023/11/17 04:39:17;;;;;;;;;;;10.50;67.40;;;5.68;100.00;95574.31;4994518;28;20344;-56
2023/11/17 04:41:49;;;;;;;;;;;10.50;67.50;;;5.65;100.00;95577.41;4985927;28;19910;-57
2023/11/17 04:44:15;;;;;;;;;;;10.40;67.50;;;5.58;99.99;95577.53;4994520;28;19910;-53
2023/11/17 04:46:41;;;;;;;;;;;10.40;67.50;;;5.57;100.00;95576.72;4993818;28;19924;-54
2023/11/17 04:49:07;;;;;;;;;;;10.40;67.60;;;5.59;100.00;95579.13;4994554;28;19910;-53
2023/11/17 04:51:32;;;;;;;;;;;10.40;67.60;;;5.59;100.00;95573.06;4994425;28;19909;-52
2023/11/17 04:53:58;;;;;;;;;;;10.40;67.60;;;5.56;100.00;95577.75;4992232;28;19913;-55
2023/11/17 04:56:24;;;;;;;;;;;10.40;67.60;;;5.58;100.00;95585.47;4996071;28;19913;-54
2023/11/17 04:58:49;;;;;;;;;;;10.30;67.70;;;5.52;100.00;95587.19;4999578;28;19909;-54
2023/11/17 05:01:15;;;;;;;;;;;10.30;67.60;;;5.52;100.00;95587.19;4994221;28;19916;-56
2023/11/17 05:03:42;;;;;;;;;;;10.30;67.70;;;5.48;100.00;95579.94;4989010;28;19909;-56
2023/11/17 05:06:09;;;;;;;;;;;10.30;67.70;;;5.45;100.00;95581.25;4994628;28;20001;-54
2023/11/17 05:08:38;;;;;;;;;;;10.30;67.70;;;5.43;100.00;95585.16;4994021;28;19918;-56
2023/11/17 05:11:05;;;;;;;;;;;10.20;67.60;;;5.47;100.00;95583.63;4993274;28;19963;-54
2023/11/17 05:13:32;;;;;;;;;;;10.20;67.70;;;5.42;100.00;95580.88;4993967;28;19909;-52
2023/11/17 05:16:00;;;;;;;;;;;10.20;67.80;;;5.38;100.00;95591.09;4993219;28;20329;-54
2023/11/17 05:18:26;;;;;;;;;;;10.20;67.80;;;5.36;100.00;95579.16;4994041;28;19909;-53
2023/11/17 05:20:52;;;;;;;;;;;10.20;67.80;;;5.36;100.00;95584.44;4993834;28;19909;-53
2023/11/17 05:23:19;;;;;;;;;;;10.20;67.90;;;5.32;100.00;95592.81;4994213;28;20280;-53
2023/11/17 05:25:45;;;;;;;;;;;10.10;67.80;;;5.32;100.00;95586.75;4993944;28;19951;-53
2023/11/17 05:28:12;;;;;;;;;;;10.10;67.80;;;5.31;100.00;95593.88;4992768;28;19962;-57
2023/11/17 05:30:39;;;;;;;;;;;10.10;67.90;;;5.34;100.00;95601.34;4988734;28;20008;-56
2023/11/17 05:33:05;;;;;;;;;;;10.10;67.90;;;5.31;100.00;95603.63;4995124;28;19909;-56
2023/11/17 05:35:37;;;;;;;;;;;10.10;67.80;;;5.31;100.00;95604.44;4991793;28;20335;-56
2023/11/17 05:38:04;;;;;;;;;;;10.10;67.80;;;5.31;100.00;95603.63;4991623;28;19914;-54
2023/11/17 05:40:33;;;;;;;;;;;10.10;67.80;;;5.30;100.00;95610.75;4991950;28;20335;-53
2023/11/17 05:43:00;;;;;;;;;;;10.10;67.90;;;5.34;100.00;95608.47;4992883;28;19914;-54
2023/11/17 05:45:27;;;;;;;;;;;10.10;67.90;;;5.38;100.00;95609.59;4992802;28;19909;-52
2023/11/17 05:47:53;;;;;;;;;;;10.10;67.90;;;5.28;100.00;95610.19;4991454;28;20000;-53
2023/11/17 05:50:20;;;;;;;;;;;10.10;68.00;;;5.37;100.00;95620.41;4992768;28;20441;-54
2023/11/17 05:52:46;;;;;;;;;;;10.10;67.90;;;5.38;100.00;95627.28;4991647;28;19960;-51
2023/11/17 05:55:16;;;;;;;;;;;10.10;67.90;;;5.36;100.00;95630.19;4992514;28;20421;-58
2023/11/17 05:57:43;;;;;;;;;;;10.10;67.90;;;5.28;100.00;95622.59;4992272;28;19921;-56
2023/11/17 06:00:18;;;;;;;;;;;10.10;67.90;;;5.25;100.00;95625.69;4992075;28;19971;-56
2023/11/17 06:02:45;;;;;;;;;;;10.10;67.80;;;5.30;100.00;95626.63;4992482;28;20446;-54
2023/11/17 06:05:13;;;;;;;;;;;10.10;67.90;;;5.30;100.00;95623.16;4994107;28;19990;-58
2023/11/17 06:07:39;;;;;;;;;;;10.10;67.90;;;5.31;100.00;95636.13;4992205;28;19967;-57
2023/11/17 06:10:06;;;;;;;;;;;10.10;68.00;;;5.28;100.00;95635.78;4991345;28;19924;-55
2023/11/17 06:12:33;;;;;;;;;;;10.10;67.90;;;5.30;100.00;95636.38;4974413;28;19917;-55
2023/11/17 06:15:00;;;;;;;;;;;10.10;68.00;;;5.24;100.00;95630.16;4992061;28;19964;-56
2023/11/17 06:17:26;;;;;;;;;;;10.10;68.00;;;5.27;100.00;95637.63;4991039;28;19914;-58
2023/11/17 06:19:52;;;;;;;;;;;10.10;68.00;;;5.27;100.00;95647.41;4992235;28;20280;-51
2023/11/17 06:22:18;;;;;;;;;;;10.10;68.00;;;5.31;100.00;95651.19;4990973;28;20367;-52
2023/11/17 06:24:44;;;;;;;;;;;10.10;68.00;;;5.29;100.00;95647.97;4974901;28;19916;-56
2023/11/17 06:27:10;;;;;;;;;;;10.10;68.00;;;5.28;100.00;95651.63;4991704;28;19909;-56
2023/11/17 06:29:37;;;;;;;;;;;10.10;68.00;;;5.25;100.00;95652.09;4985118;28;20424;-56
2023/11/17 06:32:04;;;;;;;;;;;10.10;68.00;;;5.25;100.00;95655.53;5000420;28;20005;-55
2023/11/17 06:34:29;;;;;;;;;;;10.10;68.00;;;5.30;100.00;95666.22;4990767;28;19956;-54
2023/11/17 06:36:56;;;;;;;;;;;10.10;68.00;;;5.32;100.00;95671.28;4991216;28;19921;-52
2023/11/17 06:39:23;;;;;;;;;;;10.10;68.00;;;5.25;100.00;95657.38;4991900;28;19945;-53
2023/11/17 06:41:51;;;;;;;;;;;10.10;68.00;;;5.23;100.00;95662.06;4990665;28;20016;-57
2023/11/17 06:44:22;;;;;;;;;;;10.10;68.00;;;5.26;100.00;95667.69;4991523;28;19963;-57
2023/11/17 06:46:51;;;;;;;;;;;10.10;68.00;;;5.23;100.00;95678.75;4987551;28;20372;-54
2023/11/17 06:49:22;;;;;;;;;;;10.10;67.90;;;5.25;100.00;95674.03;4991567;28;20284;-53
2023/11/17 06:51:51;;;;;;;;;;;10.10;68.00;;;5.26;100.00;95672.97;4991110;28;26876;-58
2023/11/17 06:54:21;;;;;;;;;;;10.10;68.00;;;5.20;100.00;95673.94;4990861;28;19910;-54
2023/11/17 06:56:48;;;;;;;;;;;10.10;67.90;;;5.23;100.00;95691.97;4988062;28;20003;-54
2023/11/17 06:59:16;;;;;;;;;;;10.10;67.90;;;5.25;100.00;95689.88;4981887;28;19910;-51
2023/11/17 07:01:44;;;;;;;;;;;10.10;67.90;;;5.26;100.00;95694.13;4980992;28;20012;-55
2023/11/17 07:04:13;;;;;;;;;;;10.10;67.90;;;5.23;100.00;95699.88;4983705;28;20048;-58
2023/11/17 07:06:42;;;;;;;;;;;10.10;67.90;;;5.20;100.00;95694.22;4981276;28;19913;-54
2023/11/17 07:11:51;;;;;;;;;;;10.10;67.80;;;5.28;100.00;95693.91;4984014;28;20300;-54
2023/11/17 07:14:21;;;;;;;;;;;10.10;67.90;;;5.26;100.00;95699.41;4987063;28;20353;-55
2023/11/17 07:16:52;;;;;;;;;;;10.10;67.80;;;5.23;100.00;95704.34;4989239;28;19914;-53
2023/11/17 07:19:20;;;;;;;;;;;10.10;67.80;;;5.26;100.00;95704.69;4991043;28;19913;-53
2023/11/17 07:21:49;;;;;;;;;;;10.10;67.80;;;5.23;100.00;95707.81;5002391;28;19931;-54
2023/11/17 07:24:18;;;;;;;;;;;10.10;67.80;;;5.30;100.00;95707.69;4989018;28;20287;-56
2023/11/17 07:26:47;;;;;;;;;;;10.20;67.90;;;5.23;100.00;95701.69;4989515;28;19909;-53
2023/11/17 07:29:15;;;;;;;;;;;10.20;68.60;;;5.23;100.00;95706.97;4988456;28;20380;-54
2023/11/17 07:31:46;;;;;;;;;;;10.20;67.70;;;5.29;100.00;95725.34;4987606;28;19909;-54
2023/11/17 07:34:16;;;;;;;;;;;10.20;67.70;;;5.28;100.00;95726.41;4990293;28;20372;-57
2023/11/17 07:36:47;;;;;;;;;;;10.20;67.70;;;5.27;100.00;95721.34;4997619;28;19949;-53
2023/11/17 07:39:13;;;;;;;;;;;10.20;67.60;;;5.31;100.00;95728.59;4990746;28;19909;-53
2023/11/17 07:41:41;;;;;;;;;;;10.30;67.60;;;5.31;100.00;95722.50;4990090;28;19967;-55
2023/11/17 07:44:11;;;;;;;;;;;10.30;67.60;;;5.34;100.00;95728.13;4991124;28;19972;-58
2023/11/17 07:46:37;;;;;;;;;;;10.30;67.50;;;5.30;100.00;95736.75;4982927;28;19921;-55
2023/11/17 07:49:06;;;;;;;;;;;10.30;67.50;;;5.36;100.00;95737.66;4990016;28;19925;-56
2023/11/17 07:51:35;;;;;;;;;;;10.30;67.40;;;5.37;100.00;95740.09;4990822;28;20000;-56
2023/11/17 07:54:02;;;;;;;;;;;10.40;67.50;;;5.39;100.00;95737.19;4989993;28;19916;-53
2023/11/17 07:56:29;;;;;;;;;;;10.40;67.40;;;5.37;99.91;95728.72;4990315;28;20478;-52
2023/11/17 07:58:56;;;;;;;;;;;10.40;67.30;;;5.43;99.59;95748.94;4989763;28;20008;-52
2023/11/17 08:01:23;;;;;;;;;;;10.50;67.30;;;5.49;100.00;95748.03;4990667;28;19956;-55
2023/11/17 08:03:49;;;;;;;;;;;10.50;67.20;;;5.49;100.00;95764.69;4990786;28;19913;-52
2023/11/17 08:06:15;;;;;;;;;;;10.50;67.20;;;5.45;99.39;95766.19;4987409;28;20372;-55
2023/11/17 08:08:41;;;;;;;;;;;10.60;67.10;;;5.49;99.34;95762.03;4992672;28;19925;-56
2023/11/17 08:11:09;;;;;;;;;;;10.60;67.00;;;5.57;100.00;95764.34;4994996;28;19913;-56
2023/11/17 08:13:37;;;;;;;;;;;10.60;67.10;;;5.59;99.23;95766.75;4993773;28;20364;-55
2023/11/17 08:16:06;;;;;;;;;;;10.60;67.10;;;5.66;99.60;95766.66;4993343;28;19932;-52
2023/11/17 08:18:37;;;;;;;;;;;10.60;67.10;;;5.65;99.31;95763.22;4993137;28;20510;-56
2023/11/17 08:21:06;;;;;;;;;;;10.70;67.10;;;5.65;98.94;95762.41;4991724;28;19917;-58
2023/11/17 08:23:32;;;;;;;;;;;10.70;67.00;;;5.64;99.08;95761.59;4991082;28;19917;-53
2023/11/17 08:25:59;;;;;;;;;;;10.70;66.90;;;5.58;98.33;95762.53;4999010;28;19917;-56
2023/11/17 08:28:28;;;;;;;;;;;10.70;66.80;;;5.71;99.41;95787.94;4990763;28;19924;-52
2023/11/17 08:30:54;;;;;;;;;;;10.70;66.70;;;5.74;99.19;95780.34;4994526;28;19915;-57
2023/11/17 08:33:19;;;;;;;;;;;10.70;66.80;;;5.69;99.11;95777.56;4996517;28;19909;-57
2023/11/17 08:35:45;;;;;;;;;;;10.80;66.80;;;5.76;99.43;95780.91;4993183;28;19979;-55
2023/11/17 08:38:11;;;;;;;;;;;10.80;66.80;;;5.68;99.35;95780.44;4999649;28;19914;-54
2023/11/17 08:40:38;;;;;;;;;;;10.80;66.80;;;5.66;98.92;95783.31;4997733;28;20008;-54
2023/11/17 08:43:03;;;;;;;;;;;10.80;66.70;;;5.62;99.69;95789.28;4998444;28;19971;-57
2023/11/17 08:45:30;;;;;;;;;;;10.80;66.50;;;5.71;100.00;95785.28;4996217;28;19913;-54
2023/11/17 08:47:55;;;;;;;;;;;10.80;66.50;;;5.71;100.00;95791.38;4992988;28;19917;-56
2023/11/17 08:50:21;;;;;;;;;;;10.80;66.60;;;5.70;100.00;95795.06;4993577;28;19913;-53
2023/11/17 08:52:47;;;;;;;;;;;10.80;66.60;;;5.60;100.00;95797.44;4996396;28;19916;-51
2023/11/17 08:55:16;;;;;;;;;;;10.70;66.50;;;5.59;100.00;95798.47;4996661;28;20046;-57
2023/11/17 08:57:44;;;;;;;;;;;10.70;66.50;;;5.60;99.97;95805.34;4995872;28;19914;-57
2023/11/17 09:00:18;;;;;;;;;;;10.70;66.60;;;5.54;99.26;95809.72;4992806;28;20386;-56
2023/11/17 09:02:46;;;;;;;;;;;10.70;66.50;;;5.52;99.67;95811.00;4985599;28;20000;-53
2023/11/17 09:05:17;;;;;;;;;;;10.70;66.40;;;5.61;99.80;95801.72;4984886;28;19914;-56
2023/11/17 09:07:48;;;;;;;;;;;10.70;66.40;;;5.67;100.00;95806.09;4975869;28;19996;-54
2023/11/17 09:10:16;;;;;;;;;;;10.70;66.50;;;5.67;99.22;95808.72;4992379;28;19918;-51
2023/11/17 09:12:43;;;;;;;;;;;10.70;66.60;;;5.68;99.38;95812.97;4993662;28;19909;-50
2023/11/17 09:15:14;;;;;;;;;;;10.70;66.50;;;5.68;99.35;95810.31;4993491;28;19936;-57
2023/11/17 09:17:41;;;;;;;;;;;10.70;66.40;;;5.66;99.75;95812.38;4987400;28;19920;-54
2023/11/17 09:20:13;;;;;;;;;;;10.80;66.40;;;5.73;100.00;95822.84;4993403;28;19910;-51
2023/11/17 09:22:40;;;;;;;;;;;10.80;66.20;;;5.71;100.00;95815.16;4992597;28;19913;-56
2023/11/17 09:25:13;;;;;;;;;;;10.90;66.20;;;5.61;99.73;95814.91;4993357;28;20295;-52
2023/11/17 09:28:08;;;;;;;;;;;10.90;66.00;;;5.59;100.00;95824.91;4977058;28;20451;-53
2023/11/17 09:30:37;;;;;;;;;;;10.90;65.80;;;5.46;100.00;95825.13;4972467;28;20368;-54
2023/11/17 09:33:03;;;;;;;;;;;10.80;65.60;;;5.41;100.00;95828.41;4976979;28;19915;-51
2023/11/17 09:35:31;;;;;;;;;;;10.80;65.60;;;5.47;100.00;95834.63;4995165;28;19917;-52
2023/11/17 09:38:04;;;;;;;;;;;10.70;65.60;;;5.39;100.00;95833.13;4997233;28;19913;-55
2023/11/17 09:40:33;;;;;;;;;;;10.70;65.70;;;5.44;100.00;95835.88;4991485;28;19984;-54
2023/11/17 09:43:17;;;;;;;;;;;10.70;65.80;;;5.50;100.00;95837.63;4992820;28;19913;-54
2023/11/17 09:45:48;;;;;;;;;;;10.70;66.00;;;5.53;100.00;95831.91;4992401;28;19919;-55
2023/11/17 09:48:16;;;;;;;;;;;10.70;66.20;;;5.60;100.00;95844.19;4998642;28;19953;-53
2023/11/17 09:50:45;;;;;;;;;;;10.80;66.30;;;5.60;100.00;95841.56;4992781;28;19956;-52
2023/11/17 09:53:17;;;;;;;;;;;10.80;66.30;;;5.51;100.00;95841.88;4992147;28;20315;-51
2023/11/17 09:55:45;;;;;;;;;;;10.80;67.20;;;5.51;100.00;95847.16;4985502;28;19913;-55
2023/11/17 09:58:14;;;;;;;;;;;10.80;66.40;;;5.59;100.00;95846.03;4991701;28;19913;-56
2023/11/17 10:00:43;;;;;;;;;;;10.80;66.50;;;5.49;100.00;95841.31;4987830;28;19910;-55
2023/11/17 10:03:10;;;;;;;;;;;10.90;66.60;;;5.52;100.00;95848.78;4992743;28;19967;-54
2023/11/17 10:05:38;;;;;;;;;;;10.90;66.50;;;5.50;100.00;95842.13;4987957;28;20503;-52
2023/11/17 10:08:15;;;;;;;;;;;10.80;66.40;;;5.56;100.00;95851.78;4992766;28;19909;-56
2023/11/17 10:10:47;;;;;;;;;;;10.90;66.40;;;5.51;100.00;95847.16;4989700;28;20296;-55
2023/11/17 10:13:20;;;;;;;;;;;10.90;66.50;;;5.60;100.00;95852.13;4999371;28;19909;-54
2023/11/17 10:15:52;;;;;;;;;;;10.90;66.40;;;5.67;100.00;95850.19;5001229;28;19920;-57
2023/11/17 10:18:24;;;;;;;;;;;11.00;66.50;;;5.68;100.00;95847.34;4979026;28;19917;-55
2023/11/17 10:20:50;;;;;;;;;;;11.00;66.50;;;5.65;100.00;95844.34;4993424;28;19918;-54
2023/11/17 10:23:17;;;;;;;;;;;11.10;66.50;;;5.64;100.00;95842.72;4998125;28;19909;-52
2023/11/17 10:25:43;;;;;;;;;;;11.20;66.40;;;5.68;100.00;95847.34;5004848;28;19909;-55
2023/11/17 10:28:09;;;;;;;;;;;11.10;66.30;;;5.71;100.00;95844.22;5009814;28;19913;-54
2023/11/17 10:30:41;;;;;;;;;;;11.20;66.40;;;5.78;100.00;95850.22;5011788;28;19909;-54
2023/11/17 10:33:27;;;;;;;;;;;11.20;66.40;;;5.71;100.00;95852.16;5011660;28;20295;-57
2023/11/17 10:36:17;;;;;;;;;;;11.10;66.30;;;5.86;100.00;95856.19;5000098;28;20008;-55
2023/11/17 10:38:47;;;;;;;;;;;11.20;66.50;;;5.88;100.00;95847.00;4996923;28;19920;-53
2023/11/17 10:41:20;;;;;;;;;;;11.20;66.50;;;5.92;100.00;95858.75;5008397;28;20339;-59
2023/11/17 10:43:58;;;;;;;;;;;11.20;66.40;;;5.75;100.00;95849.88;5005292;28;19963;-58
2023/11/17 10:46:44;;;;;;;;;;;11.20;66.30;;;5.83;100.00;95851.38;5003453;28;20295;-59
2023/11/17 10:49:16;;;;;;;;;;;11.20;66.30;;;5.79;100.00;95853.66;5004029;28;19909;-58
2023/11/17 10:51:49;;;;;;;;;;;11.20;66.40;;;5.74;100.00;95858.84;4995863;28;20363;-54
2023/11/17 10:54:16;;;;;;;;;;;11.20;66.30;;;5.86;100.00;95864.97;5008654;28;19916;-59
2023/11/17 10:56:45;;;;;;;;;;;11.20;66.40;;;5.89;100.00;95864.50;5010674;28;19948;-56
2023/11/17 10:59:15;;;;;;;;;;;11.10;66.40;;;5.80;100.00;95848.16;5006397;28;19915;-57
2023/11/17 11:01:43;;;;;;;;;;;11.20;66.40;;;5.85;100.00;95857.25;5003599;28;19949;-58
2023/11/17 11:04:14;;;;;;;;;;;11.10;66.30;;;5.98;100.00;95854.41;5002285;28;19925;-55
2023/11/17 11:06:42;;;;;;;;;;;11.20;66.40;;;5.91;100.00;95864.25;4995066;28;19955;-54
2023/11/17 11:09:23;;;;;;;;;;;11.20;66.40;;;5.93;100.00;95863.03;5010802;28;19917;-56
2023/11/17 11:11:50;;;;;;;;;;;11.30;66.30;;;6.03;100.00;95855.34;5008929;28;19913;-57
2023/11/17 11:14:17;;;;;;;;;;;11.30;66.30;;;6.06;100.00;95853.28;4986092;28;19909;-52
2023/11/17 11:16:47;;;;;;;;;;;11.30;66.20;;;6.04;100.00;95861.44;4985254;28;19984;-58
2023/11/17 11:19:15;;;;;;;;;;;11.40;66.10;;;6.15;100.00;95859.84;4987500;28;20005;-53
2023/11/17 11:21:42;;;;;;;;;;;11.50;66.00;;;6.16;100.00;95866.72;4993048;28;19980;-57
2023/11/17 11:24:10;;;;;;;;;;;11.50;65.80;;;6.23;99.68;95862.91;4989853;28;19936;-58
2023/11/17 11:26:38;;;;;;;;;;;11.60;65.70;;;6.35;99.27;95856.84;4984182;28;19916;-56
2023/11/17 11:29:05;;;;;;;;;;;11.70;65.70;;;6.32;99.30;95859.94;4998391;28;19913;-55
2023/11/17 11:31:36;;;;;;;;;;;11.80;65.40;;;6.22;97.22;95853.38;4992998;28;19908;-55
2023/11/17 11:34:02;;;;;;;;;;;11.80;65.10;;;6.27;98.03;95858.00;5008052;28;19948;-55